^^
Datos históricos de la estación: Murcia-Puente Tocinos
Diario Informe para Julio 15, 2019 Unidades:  Ambas    Ingés   Métrico
Diario Semanal Mensual Anual
  Máxima: Mínima: Promedio:
Temperatura: 103.3 °F /  39.6 °C 75 °F /  23.9 °C 85.5 °F /  29.7 °C
Punto de rocio: 72.7 °F /  22.6 °C 53.8 °F /  12.1 °C 66.7 °F /  19.3 °C
Humedad: 86% 20% 60%
Velocidad viento: 14.5mph /  23.3km/h - 6.3mph /  10.1km/h
Racha viento: 25.3mph /  40.7km/h - -
Viento- - Sur
Presión: 29.9 in /  1011.0 hPa 29.7 in /  1006.1 hPa -
Precipitación: 0 in /  0.0 mm    
 
 
Tabla de datos para Julio 15, 2019
Hora Temperatura Punto de rocio Presión Viento Velocidad viento Racha viento Humedad Intensidad lluvia(por hora) Nubes
00:04 78.3 °F /  25.7 °C 70.3 °F /  21.3 °C 29.8in /  1010.2hPa NE 8.3mph /  13.3km/h 13mph /  20.9km/h 77% 0in /  0.0mm
00:14 78.1 °F /  25.6 °C 70.7 °F /  21.5 °C 29.8in /  1010.2hPa NE 8.1mph /  13km/h 12.3mph /  19.8km/h 78% 0in /  0.0mm
00:19 77.9 °F /  25.5 °C 70.5 °F /  21.4 °C 29.8in /  1010.2hPa NE 6.9mph /  11.1km/h 10.4mph /  16.7km/h 78% 0in /  0.0mm
00:24 77.9 °F /  25.5 °C 70.5 °F /  21.4 °C 29.8in /  1010.2hPa NE 6.9mph /  11.1km/h 8.1mph /  13km/h 78% 0in /  0.0mm
00:29 77.7 °F /  25.4 °C 70.3 °F /  21.3 °C 29.8in /  1010.2hPa Este 5.9mph /  9.5km/h 7.4mph /  11.9km/h 78% 0in /  0.0mm
00:34 77.7 °F /  25.4 °C 70.7 °F /  21.5 °C 29.8in /  1010.2hPa Este 5.9mph /  9.5km/h 8.1mph /  13km/h 79% 0in /  0.0mm
00:39 77.5 °F /  25.3 °C 70.5 °F /  21.4 °C 29.8in /  1010.2hPa NE 5.9mph /  9.5km/h 9.2mph /  14.8km/h 79% 0in /  0.0mm
00:44 77.5 °F /  25.3 °C 70.5 °F /  21.4 °C 29.8in /  1010.2hPa NE 5.9mph /  9.5km/h 6.9mph /  11.1km/h 79% 0in /  0.0mm
00:50 77.5 °F /  25.3 °C 70.5 °F /  21.4 °C 29.8in /  1010.3hPa NE 6mph /  9.7km/h 9mph /  14.5km/h 79% 0in /  0.0mm
00:59 77.4 °F /  25.2 °C 70.3 °F /  21.3 °C 29.8in /  1010.3hPa NE 6mph /  9.6km/h 10mph /  16.1km/h 79% 0in /  0.0mm
01:04 77.4 °F /  25.2 °C 70.3 °F /  21.3 °C 29.8in /  1010.3hPa NE 5.9mph /  9.5km/h 6.2mph /  10km/h 79% 0in /  0.0mm
01:14 77.4 °F /  25.2 °C 70.7 °F /  21.5 °C 29.8in /  1010.3hPa ENE 4.8mph /  7.8km/h 8mph /  12.9km/h 80% 0in /  0.0mm
01:24 77.4 °F /  25.2 °C 70.7 °F /  21.5 °C 29.8in /  1010.4hPa NE 3.3mph /  5.3km/h 5.8mph /  9.3km/h 80% 0in /  0.0mm
01:30 77.4 °F /  25.2 °C 70.7 °F /  21.5 °C 29.8in /  1010.4hPa NE 3mph /  4.8km/h 7mph /  11.3km/h 80% 0in /  0.0mm
01:39 77.2 °F /  25.1 °C 70.5 °F /  21.4 °C 29.8in /  1010.3hPa NE 3.7mph /  5.9km/h 7mph /  11.3km/h 80% 0in /  0.0mm
01:45 77.2 °F /  25.1 °C 70.5 °F /  21.4 °C 29.8in /  1010.3hPa NE 5mph /  8km/h 6mph /  9.7km/h 80% 0in /  0.0mm
01:50 77.2 °F /  25.1 °C 70.5 °F /  21.4 °C 29.8in /  1010.2hPa NE 3mph /  4.8km/h 5mph /  8km/h 80% 0in /  0.0mm
01:59 77 °F /  25 °C 70.3 °F /  21.3 °C 29.8in /  1010.2hPa NE 3mph /  4.9km/h 6mph /  9.7km/h 80% 0in /  0.0mm
02:05 76.8 °F /  24.9 °C 70.5 °F /  21.4 °C 29.8in /  1010.1hPa NNE 3.1mph /  5km/h 3.5mph /  5.6km/h 81% 0in /  0.0mm
02:10 76.8 °F /  24.9 °C 70.5 °F /  21.4 °C 29.8in /  1010.1hPa NNE 2.9mph /  4.7km/h 5.8mph /  9.3km/h 81% 0in /  0.0mm
02:15 76.8 °F /  24.9 °C 70.5 °F /  21.4 °C 29.8in /  1010.1hPa NE 2mph /  3.2km/h 6mph /  9.7km/h 81% 0in /  0.0mm
02:20 76.8 °F /  24.9 °C 70.5 °F /  21.4 °C 29.8in /  1010.0hPa NE 3mph /  4.8km/h 5mph /  8km/h 81% 0in /  0.0mm
02:25 76.8 °F /  24.9 °C 70.5 °F /  21.4 °C 29.8in /  1010.0hPa NE 3mph /  4.8km/h 6mph /  9.7km/h 81% 0in /  0.0mm
02:30 76.8 °F /  24.9 °C 70.5 °F /  21.4 °C 29.8in /  1010.0hPa ENE 2mph /  3.2km/h 6mph /  9.7km/h 81% 0in /  0.0mm
02:39 76.8 °F /  24.9 °C 70.5 °F /  21.4 °C 29.8in /  1009.9hPa NE 2.4mph /  3.9km/h 5mph /  8km/h 81% 0in /  0.0mm
02:44 76.6 °F /  24.8 °C 70.3 °F /  21.3 °C 29.8in /  1009.9hPa NE 2.9mph /  4.7km/h 3.5mph /  5.6km/h 81% 0in /  0.0mm
02:49 76.6 °F /  24.8 °C 70.3 °F /  21.3 °C 29.8in /  1009.7hPa ENE 1.8mph /  2.9km/h 3.5mph /  5.6km/h 81% 0in /  0.0mm
02:59 76.6 °F /  24.8 °C 70.3 °F /  21.3 °C 29.8in /  1009.7hPa NE 2mph /  3.2km/h 5mph /  8km/h 81% 0in /  0.0mm
03:04 76.6 °F /  24.8 °C 70.7 °F /  21.5 °C 29.8in /  1009.7hPa NNO 2mph /  3.2km/h 3.5mph /  5.6km/h 82% 0in /  0.0mm
03:09 76.5 °F /  24.7 °C 70.5 °F /  21.4 °C 29.8in /  1009.7hPa NNO 2.4mph /  3.9km/h 3.6mph /  5.8km/h 82% 0in /  0.0mm
03:14 76.5 °F /  24.7 °C 70.5 °F /  21.4 °C 29.8in /  1009.7hPa NNO 2.4mph /  3.9km/h 3.6mph /  5.8km/h 82% 0in /  0.0mm
03:19 76.5 °F /  24.7 °C 70.5 °F /  21.4 °C 29.8in /  1009.7hPa NNO 2.9mph /  4.7km/h 3.5mph /  5.6km/h 82% 0in /  0.0mm
03:24 76.5 °F /  24.7 °C 70.5 °F /  21.4 °C 29.8in /  1009.7hPa NNO 2.9mph /  4.7km/h 3.5mph /  5.6km/h 82% 0in /  0.0mm
03:29 76.5 °F /  24.7 °C 70.5 °F /  21.4 °C 29.8in /  1009.7hPa NNO 2mph /  3.2km/h 4.6mph /  7.4km/h 82% 0in /  0.0mm
03:39 76.5 °F /  24.7 °C 70.5 °F /  21.4 °C 29.8in /  1009.6hPa NNO 1.9mph /  3.1km/h 4mph /  6.4km/h 82% 0in /  0.0mm
03:49 76.5 °F /  24.7 °C 70.9 °F /  21.6 °C 29.8in /  1009.6hPa NNO 1.7mph /  2.7km/h 3mph /  4.8km/h 83% 0in /  0.0mm
03:54 76.5 °F /  24.7 °C 70.9 °F /  21.6 °C 29.8in /  1009.6hPa NNO 1.4mph /  2.3km/h 3.5mph /  5.6km/h 83% 0in /  0.0mm
03:59 76.5 °F /  24.7 °C 70.9 °F /  21.6 °C 29.8in /  1009.6hPa NNO 1.8mph /  2.9km/h 3.1mph /  5km/h 83% 0in /  0.0mm
04:04 76.5 °F /  24.7 °C 70.5 °F /  21.4 °C 29.8in /  1009.5hPa NNO 1.8mph /  2.9km/h 3.1mph /  5km/h 82% 0in /  0.0mm
04:09 76.3 °F /  24.6 °C 70.7 °F /  21.5 °C 29.8in /  1009.5hPa NNO 2mph /  3.2km/h 3.6mph /  5.8km/h 83% 0in /  0.0mm
04:14 76.3 °F /  24.6 °C 70.7 °F /  21.5 °C 29.8in /  1009.5hPa NNO 2mph /  3.2km/h 2.3mph /  3.7km/h 83% 0in /  0.0mm
04:19 76.3 °F /  24.6 °C 70.7 °F /  21.5 °C 29.8in /  1009.5hPa NNO 1.4mph /  2.3km/h 3.5mph /  5.6km/h 83% 0in /  0.0mm
04:24 76.3 °F /  24.6 °C 70.7 °F /  21.5 °C 29.8in /  1009.5hPa NNO 1.4mph /  2.3km/h 2.3mph /  3.7km/h 83% 0in /  0.0mm
04:30 76.3 °F /  24.6 °C 70.7 °F /  21.5 °C 29.8in /  1009.5hPa NNO 1mph /  1.6km/h 1mph /  1.6km/h 83% 0in /  0.0mm
04:39 76.3 °F /  24.6 °C 70.7 °F /  21.5 °C 29.8in /  1009.4hPa NNO 0.5mph /  0.8km/h   83% 0in /  0.0mm
04:45 76.3 °F /  24.6 °C 70.7 °F /  21.5 °C 29.8in /  1009.4hPa Calm     83% 0in /  0.0mm
04:54 76.3 °F /  24.6 °C 70.7 °F /  21.5 °C 29.8in /  1009.3hPa Calm   3.1mph /  5km/h 83% 0in /  0.0mm
04:59 76.3 °F /  24.6 °C 71.1 °F /  21.7 °C 29.8in /  1009.3hPa NNO 1.4mph /  2.3km/h 2.3mph /  3.7km/h 84% 0in /  0.0mm
05:04 76.3 °F /  24.6 °C 71.1 °F /  21.7 °C 29.8in /  1009.3hPa NNO 1.4mph /  2.3km/h 2.3mph /  3.7km/h 84% 0in /  0.0mm
05:09 76.3 °F /  24.6 °C 71.1 °F /  21.7 °C 29.8in /  1009.3hPa NNO 1.4mph /  2.3km/h 3.5mph /  5.6km/h 84% 0in /  0.0mm
05:19 76.1 °F /  24.5 °C 70.7 °F /  21.5 °C 29.8in /  1009.3hPa NNO 1.5mph /  2.4km/h 4mph /  6.4km/h 83.5% 0in /  0.0mm
05:24 75.9 °F /  24.4 °C 70.7 °F /  21.5 °C 29.8in /  1009.2hPa NNO 2mph /  3.2km/h   84% 0in /  0.0mm
05:29 75.9 °F /  24.4 °C 70.7 °F /  21.5 °C 29.8in /  1009.2hPa Calm   2.3mph /  3.7km/h 84% 0in /  0.0mm
05:34 75.9 °F /  24.4 °C 70.7 °F /  21.5 °C 29.8in /  1009.2hPa Calm   4mph /  6.4km/h 84% 0in /  0.0mm
05:44 75.9 °F /  24.4 °C 70.7 °F /  21.5 °C 29.8in /  1009.2hPa NO 1.9mph /  3.1km/h 5mph /  8km/h 84% 0in /  0.0mm
05:54 75.9 °F /  24.4 °C 70.7 °F /  21.5 °C 29.8in /  1009.3hPa NO 1.2mph /  1.9km/h 3mph /  4.8km/h 84% 0in /  0.0mm
05:59 75.9 °F /  24.4 °C 70.7 °F /  21.5 °C 29.8in /  1009.3hPa NO 1.4mph /  2.3km/h 3.5mph /  5.6km/h 84% 0in /  0.0mm
06:04 75.9 °F /  24.4 °C 70.7 °F /  21.5 °C 29.8in /  1009.3hPa NO 1.4mph /  2.3km/h 2.3mph /  3.7km/h 84% 0in /  0.0mm
06:09 75.9 °F /  24.4 °C 71.1 °F /  21.7 °C 29.8in /  1009.3hPa Calm     85% 0in /  0.0mm
06:14 75.9 °F /  24.4 °C 71.1 °F /  21.7 °C 29.8in /  1009.3hPa Calm     85% 0in /  0.0mm
06:19 75.9 °F /  24.4 °C 71.1 °F /  21.7 °C 29.8in /  1009.3hPa Calm   2.3mph /  3.7km/h 85% 0in /  0.0mm
06:25 75.9 °F /  24.4 °C 71.1 °F /  21.7 °C 29.8in /  1009.3hPa Calm   3mph /  4.8km/h 85% 0in /  0.0mm
06:34 75.9 °F /  24.4 °C 71.1 °F /  21.7 °C 29.8in /  1009.4hPa NO 1.2mph /  1.9km/h 3mph /  4.8km/h 85% 0in /  0.0mm
06:39 75.7 °F /  24.3 °C 71.2 °F /  21.8 °C 29.8in /  1009.4hPa NO 1.4mph /  2.3km/h 2.9mph /  4.7km/h 86% 0in /  0.0mm
06:44 75.7 °F /  24.3 °C 71.2 °F /  21.8 °C 29.8in /  1009.4hPa NO 1.4mph /  2.3km/h 1.8mph /  2.9km/h 86% 0in /  0.0mm
06:49 75.7 °F /  24.3 °C 70.9 °F /  21.6 °C 29.8in /  1009.5hPa ESE 1.4mph /  2.3km/h 4.6mph /  7.4km/h 85% 0in /  0.0mm
06:54 75.6 °F /  24.2 °C 70.7 °F /  21.5 °C 29.8in /  1009.5hPa ESE 1.4mph /  2.3km/h 3.5mph /  5.6km/h 85% 0in /  0.0mm
07:04 75.2 °F /  24 °C 70.3 °F /  21.3 °C 29.8in /  1009.5hPa ESE 2.2mph /  3.5km/h 5mph /  8km/h 85% 0in /  0.0mm
07:09 75 °F /  23.9 °C 70.2 °F /  21.2 °C 29.8in /  1009.5hPa ESE 2mph /  3.2km/h 2.3mph /  3.7km/h 85% 0in /  0.0mm
07:14 75 °F /  23.9 °C 70 °F /  21.1 °C 29.8in /  1009.5hPa ESE 2mph /  3.2km/h 3.5mph /  5.6km/h 84% 0in /  0.0mm
07:19 75 °F /  23.9 °C 70 °F /  21.1 °C 29.8in /  1009.5hPa ESE 2mph /  3.2km/h 3.5mph /  5.6km/h 84% 0in /  0.0mm
07:24 75 °F /  23.9 °C 70.2 °F /  21.2 °C 29.8in /  1009.5hPa ESE 2mph /  3.2km/h 3.5mph /  5.6km/h 85% 0in /  0.0mm
07:34 75.2 °F /  24 °C 70.3 °F /  21.3 °C 29.8in /  1009.6hPa ESE 1.9mph /  3.1km/h 5mph /  8km/h 85% 0in /  0.0mm
07:39 75.6 °F /  24.2 °C 70.7 °F /  21.5 °C 29.8in /  1009.6hPa ESE 2.4mph /  3.9km/h 4.6mph /  7.4km/h 85% 0in /  0.0mm
07:44 75.9 °F /  24.4 °C 71.1 °F /  21.7 °C 29.8in /  1009.6hPa ESE 2.4mph /  3.9km/h 3.5mph /  5.6km/h 85% 0in /  0.0mm
07:54 76.3 °F /  24.6 °C 71.2 °F /  21.8 °C 29.8in /  1009.7hPa ESE 2mph /  3.2km/h 3mph /  4.8km/h 84.5% 0in /  0.0mm
08:04 76.5 °F /  24.7 °C 71.1 °F /  21.7 °C 29.8in /  1009.7hPa ESE 1.9mph /  3.1km/h 5mph /  8km/h 83.5% 0in /  0.0mm
08:09 76.1 °F /  24.5 °C 70.9 °F /  21.6 °C 29.8in /  1009.6hPa ESE 2.9mph /  4.7km/h 3.5mph /  5.6km/h 84% 0in /  0.0mm
08:14 75.9 °F /  24.4 °C 70.7 °F /  21.5 °C 29.8in /  1009.6hPa ESE 2.9mph /  4.7km/h 4.6mph /  7.4km/h 84% 0in /  0.0mm
08:19 75.9 °F /  24.4 °C 70.7 °F /  21.5 °C 29.8in /  1009.7hPa Este 2mph /  3.2km/h 2.4mph /  3.9km/h 84% 0in /  0.0mm
08:29 76.3 °F /  24.6 °C 71.4 °F /  21.9 °C 29.8in /  1009.7hPa ENE 1.9mph /  3.1km/h 5mph /  8km/h 85% 0in /  0.0mm
08:39 76.5 °F /  24.7 °C 71.6 °F /  22 °C 29.8in /  1009.8hPa NNE 1.7mph /  2.7km/h 5mph /  8km/h 85% 0in /  0.0mm
08:44 76.6 °F /  24.8 °C 71.4 °F /  21.9 °C 29.8in /  1009.8hPa North 1.4mph /  2.3km/h 2.3mph /  3.7km/h 84% 0in /  0.0mm
08:49 76.6 °F /  24.8 °C 71.4 °F /  21.9 °C 29.8in /  1009.8hPa NNO 1.8mph /  2.9km/h 3.5mph /  5.6km/h 84% 0in /  0.0mm
08:54 76.6 °F /  24.8 °C 71.4 °F /  21.9 °C 29.8in /  1009.8hPa NNO 1.8mph /  2.9km/h   84% 0in /  0.0mm
09:04 76.6 °F /  24.8 °C 71.4 °F /  21.9 °C 29.8in /  1009.8hPa NE 1.2mph /  1.9km/h 4.6mph /  7.4km/h 84% 0in /  0.0mm
09:09 76.6 °F /  24.8 °C 71.4 °F /  21.9 °C 29.8in /  1009.8hPa Este 2.9mph /  4.7km/h 4.6mph /  7.4km/h 84% 0in /  0.0mm
09:14 76.8 °F /  24.9 °C 71.6 °F /  22 °C 29.8in /  1009.8hPa ENE 2.9mph /  4.7km/h 4.6mph /  7.4km/h 84% 0in /  0.0mm
09:19 76.8 °F /  24.9 °C 71.6 °F /  22 °C 29.8in /  1009.8hPa ENE 2.4mph /  3.9km/h 1.4mph /  2.3km/h 84% 0in /  0.0mm
09:24 77.2 °F /  25.1 °C 71.6 °F /  22 °C 29.8in /  1009.8hPa ONO 2.4mph /  3.9km/h 3.5mph /  5.6km/h 83% 0in /  0.0mm
09:29 77.5 °F /  25.3 °C 71.6 °F /  22 °C 29.8in /  1009.8hPa ESE 1.4mph /  2.3km/h 1.4mph /  2.3km/h 82% 0in /  0.0mm
09:39 77.7 °F /  25.4 °C 71.2 °F /  21.8 °C 29.8in /  1009.8hPa SSO 1.9mph /  3.1km/h 6mph /  9.7km/h 80.5% 0in /  0.0mm
09:44 78.1 °F /  25.6 °C 71.4 °F /  21.9 °C 29.8in /  1009.8hPa SSO 2.9mph /  4.7km/h 3.6mph /  5.8km/h 80% 0in /  0.0mm
09:49 78.4 °F /  25.8 °C 71.4 °F /  21.9 °C 29.8in /  1009.8hPa SSE 2.4mph /  3.9km/h 3.5mph /  5.6km/h 79% 0in /  0.0mm
09:54 78.8 °F /  26 °C 71.4 °F /  21.9 °C 29.8in /  1009.8hPa SO 2.4mph /  3.9km/h 2.3mph /  3.7km/h 78% 0in /  0.0mm
09:59 79.3 °F /  26.3 °C 71.4 °F /  21.9 °C 29.8in /  1009.8hPa Oeste 2mph /  3.2km/h 3.5mph /  5.6km/h 77% 0in /  0.0mm
10:09 80.1 °F /  26.7 °C 71.6 °F /  22 °C 29.8in /  1009.7hPa Sur 2mph /  3.2km/h 5mph /  8km/h 75.5% 0in /  0.0mm
10:14 80.8 °F /  27.1 °C 71.8 °F /  22.1 °C 29.8in /  1009.7hPa Oeste 2mph /  3.2km/h 4.6mph /  7.4km/h 74% 0in /  0.0mm
10:19 80.8 °F /  27.1 °C 71.2 °F /  21.8 °C 29.8in /  1009.7hPa Oeste 2.9mph /  4.7km/h 8.1mph /  13km/h 73% 0in /  0.0mm
10:24 80.4 °F /  26.9 °C 71.1 °F /  21.7 °C 29.8in /  1009.7hPa ONO 2.9mph /  4.7km/h 4.6mph /  7.4km/h 73% 0in /  0.0mm
10:29 80.6 °F /  27 °C 70.7 °F /  21.5 °C 29.8in /  1009.7hPa ONO 4mph /  6.4km/h 5.8mph /  9.3km/h 72% 0in /  0.0mm
10:34 80.6 °F /  27 °C 70.7 °F /  21.5 °C 29.8in /  1009.7hPa SSE 4mph /  6.4km/h 5.8mph /  9.3km/h 72% 0in /  0.0mm
10:39 81.1 °F /  27.3 °C 70.3 °F /  21.3 °C 29.8in /  1009.7hPa Oeste 3.6mph /  5.8km/h 4.6mph /  7.4km/h 70% 0in /  0.0mm
10:44 81.3 °F /  27.4 °C 70.2 °F /  21.2 °C 29.8in /  1009.7hPa ONO 3.6mph /  5.8km/h 5.8mph /  9.3km/h 69% 0in /  0.0mm
10:49 81.9 °F /  27.7 °C 70.3 °F /  21.3 °C 29.8in /  1009.6hPa SO 3.1mph /  5km/h 4.6mph /  7.4km/h 68% 0in /  0.0mm
10:54 82 °F /  27.8 °C 70 °F /  21.1 °C 29.8in /  1009.6hPa Oeste 3.1mph /  5km/h 5.8mph /  9.3km/h 67% 0in /  0.0mm
10:59 82.6 °F /  28.1 °C 69.6 °F /  20.9 °C 29.8in /  1009.6hPa SO 3.1mph /  5km/h 5.4mph /  8.7km/h 65% 0in /  0.0mm
11:04 82.8 °F /  28.2 °C 68.9 °F /  20.5 °C 29.8in /  1009.5hPa Sur 3.1mph /  5km/h 4.6mph /  7.4km/h 63% 0in /  0.0mm
11:09 83.1 °F /  28.4 °C 68.7 °F /  20.4 °C 29.8in /  1009.5hPa OSO 3.1mph /  5km/h 4.6mph /  7.4km/h 62% 0in /  0.0mm
11:14 83.5 °F /  28.6 °C 68.5 °F /  20.3 °C 29.8in /  1009.5hPa SSE 3.1mph /  5km/h 9.2mph /  14.8km/h 61% 0in /  0.0mm
11:24 84 °F /  28.9 °C 69.1 °F /  20.6 °C 29.8in /  1009.4hPa SE 4.5mph /  7.2km/h 6mph /  9.7km/h 61% 0in /  0.0mm
11:29 84.6 °F /  29.2 °C 68.2 °F /  20.1 °C 29.8in /  1009.4hPa SSO 3.1mph /  5km/h 5.2mph /  8.4km/h 58% 0in /  0.0mm
11:34 84.7 °F /  29.3 °C 67.8 °F /  19.9 °C 29.8in /  1009.2hPa SO 3.1mph /  5km/h 8.1mph /  13km/h 57% 0in /  0.0mm
11:44 85.1 °F /  29.5 °C 68.4 °F /  20.2 °C 29.8in /  1009.2hPa SSO 4.5mph /  7.2km/h 8.7mph /  14km/h 57.5% 0in /  0.0mm
11:49 85.8 °F /  29.9 °C 68.4 °F /  20.2 °C 29.8in /  1009.2hPa OSO 4.7mph /  7.6km/h 6.9mph /  11.1km/h 56% 0in /  0.0mm
11:54 86.2 °F /  30.1 °C 68.2 °F /  20.1 °C 29.8in /  1009.2hPa SO 4.7mph /  7.6km/h 10mph /  16.1km/h 55% 0in /  0.0mm
11:59 86.2 °F /  30.1 °C 67.6 °F /  19.8 °C 29.8in /  1009.2hPa ESE 4.3mph /  6.9km/h 5.8mph /  9.3km/h 54% 0in /  0.0mm
12:09 86.5 °F /  30.3 °C 67.5 °F /  19.7 °C 29.8in /  1009.0hPa SSO 4.7mph /  7.5km/h 8.5mph /  13.7km/h 53% 0in /  0.0mm
12:14 86.9 °F /  30.5 °C 67.3 °F /  19.6 °C 29.8in /  1009.0hPa SSE 4.3mph /  6.9km/h 8.1mph /  13km/h 52% 0in /  0.0mm
12:19 87.3 °F /  30.7 °C 66.9 °F /  19.4 °C 29.8in /  1009.0hPa SSO 5.2mph /  8.4km/h 6.9mph /  11.1km/h 51% 0in /  0.0mm
12:24 87.8 °F /  31 °C 67.5 °F /  19.7 °C 29.8in /  1009.0hPa SSO 5.2mph /  8.4km/h 5.2mph /  8.4km/h 51% 0in /  0.0mm
12:29 88.5 °F /  31.4 °C 66.9 °F /  19.4 °C 29.8in /  1009.0hPa SSO 5.2mph /  8.4km/h 9.2mph /  14.8km/h 49% 0in /  0.0mm
12:34 88.9 °F /  31.6 °C 66.7 °F /  19.3 °C 29.8in /  1008.9hPa SSO 5.2mph /  8.4km/h 8.1mph /  13km/h 48% 0in /  0.0mm
12:39 89.1 °F /  31.7 °C 66.2 °F /  19 °C 29.8in /  1008.9hPa NO 5.9mph /  9.5km/h 6.9mph /  11.1km/h 47% 0in /  0.0mm
12:44 89.6 °F /  32 °C 66 °F /  18.9 °C 29.8in /  1008.9hPa OSO 5.9mph /  9.5km/h 8.1mph /  13km/h 46% 0in /  0.0mm
12:49 90.1 °F /  32.3 °C 65.3 °F /  18.5 °C 29.8in /  1008.6hPa SO 4mph /  6.4km/h 5.2mph /  8.4km/h 44% 0in /  0.0mm
12:54 90.5 °F /  32.5 °C 64.9 °F /  18.3 °C 29.8in /  1008.6hPa ENE 4mph /  6.4km/h 3.5mph /  5.6km/h 43% 0in /  0.0mm
12:59 91.2 °F /  32.9 °C 64.9 °F /  18.3 °C 29.8in /  1008.6hPa ONO 3.6mph /  5.8km/h 5.8mph /  9.3km/h 42% 0in /  0.0mm
13:04 91.6 °F /  33.1 °C 64.6 °F /  18.1 °C 29.8in /  1008.4hPa Sur 3.6mph /  5.8km/h 3.6mph /  5.8km/h 41% 0in /  0.0mm
13:09 91.9 °F /  33.3 °C 64.2 °F /  17.9 °C 29.8in /  1008.4hPa Oeste 4mph /  6.4km/h 5.8mph /  9.3km/h 40% 0in /  0.0mm
13:14 92.5 °F /  33.6 °C 64.6 °F /  18.1 °C 29.8in /  1008.4hPa SSE 4mph /  6.4km/h 5.8mph /  9.3km/h 40% 0in /  0.0mm
13:19 92.7 °F /  33.7 °C 64 °F /  17.8 °C 29.8in /  1008.2hPa ESE 3.6mph /  5.8km/h 4.6mph /  7.4km/h 39% 0in /  0.0mm
13:24 93 °F /  33.9 °C 64.4 °F /  18 °C 29.8in /  1008.2hPa NO 3.6mph /  5.8km/h 3.6mph /  5.8km/h 39% 0in /  0.0mm
13:29 93.7 °F /  34.3 °C 64.2 °F /  17.9 °C 29.8in /  1008.2hPa Este 3.1mph /  5km/h 4.6mph /  7.4km/h 38% 0in /  0.0mm
13:34 94.5 °F /  34.7 °C 63.3 °F /  17.4 °C 29.8in /  1008.0hPa SSO 3.1mph /  5km/h 6.4mph /  10.3km/h 36% 0in /  0.0mm
13:39 94.6 °F /  34.8 °C 62.8 °F /  17.1 °C 29.8in /  1008.0hPa SO 4mph /  6.4km/h 6.9mph /  11.1km/h 35% 0in /  0.0mm
13:44 94.8 °F /  34.9 °C 62.1 °F /  16.7 °C 29.8in /  1008.0hPa SSE 4mph /  6.4km/h 2.3mph /  3.7km/h 34% 0in /  0.0mm
13:49 95.4 °F /  35.2 °C 61.7 °F /  16.5 °C 29.8in /  1007.8hPa SSE 4mph /  6.4km/h 8.1mph /  13km/h 33% 0in /  0.0mm
13:54 95.9 °F /  35.5 °C 59.5 °F /  15.3 °C 29.8in /  1007.8hPa ONO 4mph /  6.4km/h 5.9mph /  9.5km/h 30% 0in /  0.0mm
13:59 96.4 °F /  35.8 °C 59 °F /  15 °C 29.8in /  1007.8hPa SSO 5.4mph /  8.7km/h 16.1mph /  25.9km/h 29% 0in /  0.0mm
14:09 97.3 °F /  36.3 °C 58.3 °F /  14.6 °C 29.7in /  1007.3hPa OSO 7mph /  11.3km/h 15mph /  24.1km/h 27.5% 0in /  0.0mm
14:14 98.4 °F /  36.9 °C 57.6 °F /  14.2 °C 29.7in /  1007.3hPa ONO 8.1mph /  13km/h 10.4mph /  16.7km/h 26% 0in /  0.0mm
14:19 99.1 °F /  37.3 °C 57 °F /  13.9 °C 29.7in /  1007.2hPa ONO 8.1mph /  13km/h 16.1mph /  25.9km/h 25% 0in /  0.0mm
14:24 99.1 °F /  37.3 °C 57 °F /  13.9 °C 29.7in /  1007.2hPa NNO 8.1mph /  13km/h 18.4mph /  29.6km/h 25% 0in /  0.0mm
14:29 99.1 °F /  37.3 °C 57 °F /  13.9 °C 29.7in /  1007.2hPa Oeste 7.6mph /  12.2km/h 11.2mph /  18km/h 25% 0in /  0.0mm
14:34 99 °F /  37.2 °C 55.9 °F /  13.3 °C 29.7in /  1007.1hPa Oeste 7.6mph /  12.2km/h 16.1mph /  25.9km/h 24% 0in /  0.0mm
14:39 99.3 °F /  37.4 °C 56.1 °F /  13.4 °C 29.7in /  1007.1hPa ONO 11.2mph /  18km/h 17.3mph /  27.8km/h 24% 0in /  0.0mm
14:44 99.1 °F /  37.3 °C 54.9 °F /  12.7 °C 29.7in /  1007.1hPa NO 11.2mph /  18km/h 15mph /  24.1km/h 23% 0in /  0.0mm
14:49 99.3 °F /  37.4 °C 56.1 °F /  13.4 °C 29.7in /  1006.9hPa ONO 8.7mph /  14km/h 5.8mph /  9.3km/h 24% 0in /  0.0mm
14:54 99.9 °F /  37.7 °C 55.4 °F /  13 °C 29.7in /  1006.9hPa Oeste 8.7mph /  14km/h 15mph /  24.1km/h 23% 0in /  0.0mm
14:59 100 °F /  37.8 °C 55.6 °F /  13.1 °C 29.7in /  1006.9hPa ONO 10mph /  16.1km/h 16.1mph /  25.9km/h 23% 0in /  0.0mm
15:04 100.2 °F /  37.9 °C 54.5 °F /  12.5 °C 29.7in /  1006.9hPa NO 10mph /  16.1km/h 15mph /  24.1km/h 22% 0in /  0.0mm
15:09 100.6 °F /  38.1 °C 54.9 °F /  12.7 °C 29.7in /  1006.9hPa ONO 10mph /  16.1km/h 12.5mph /  20.1km/h 22% 0in /  0.0mm
15:14 100.9 °F /  38.3 °C 55 °F /  12.8 °C 29.7in /  1006.9hPa Oeste 10mph /  16.1km/h 14.7mph /  23.7km/h 22% 0in /  0.0mm
15:19 101.3 °F /  38.5 °C 55.4 °F /  13 °C 29.7in /  1006.7hPa NO 9.2mph /  14.8km/h 16.1mph /  25.9km/h 22% 0in /  0.0mm
15:24 101.5 °F /  38.6 °C 54.3 °F /  12.4 °C 29.7in /  1006.7hPa NO 9.2mph /  14.8km/h 11.5mph /  18.5km/h 21% 0in /  0.0mm
15:29 101.1 °F /  38.4 °C 54 °F /  12.2 °C 29.7in /  1006.7hPa ONO 7.6mph /  12.2km/h 19.7mph /  31.7km/h 21% 0in /  0.0mm
15:34 100.9 °F /  38.3 °C 53.8 °F /  12.1 °C 29.7in /  1006.6hPa ONO 7.6mph /  12.2km/h 11.5mph /  18.5km/h 21% 0in /  0.0mm
15:39 101.3 °F /  38.5 °C 54.1 °F /  12.3 °C 29.7in /  1006.6hPa NNO 8.5mph /  13.7km/h 12.7mph /  20.4km/h 21% 0in /  0.0mm
15:44 101.7 °F /  38.7 °C 54.3 °F /  12.4 °C 29.7in /  1006.6hPa North 8.5mph /  13.7km/h 15mph /  24.1km/h 21% 0in /  0.0mm
15:49 101.8 °F /  38.8 °C 55.9 °F /  13.3 °C 29.7in /  1006.4hPa NO 9.2mph /  14.8km/h 9.2mph /  14.8km/h 22% 0in /  0.0mm
15:54 102.4 °F /  39.1 °C 55 °F /  12.8 °C 29.7in /  1006.4hPa ONO 9.2mph /  14.8km/h 15mph /  24.1km/h 21% 0in /  0.0mm
15:59 102.6 °F /  39.2 °C 55.2 °F /  12.9 °C 29.7in /  1006.4hPa NNO 6.2mph /  10km/h 6.9mph /  11.1km/h 21% 0in /  0.0mm
16:04 102.6 °F /  39.2 °C 55.2 °F /  12.9 °C 29.7in /  1006.3hPa NO 6.2mph /  10km/h 11.5mph /  18.5km/h 21% 0in /  0.0mm
16:09 102.7 °F /  39.3 °C 54 °F /  12.2 °C 29.7in /  1006.3hPa NO 6.9mph /  11.1km/h 17.3mph /  27.8km/h 20% 0in /  0.0mm
16:14 102.7 °F /  39.3 °C 55.2 °F /  12.9 °C 29.7in /  1006.3hPa NNO 6.9mph /  11.1km/h 5.4mph /  8.7km/h 21% 0in /  0.0mm
16:19 102.9 °F /  39.4 °C 54.1 °F /  12.3 °C 29.7in /  1006.2hPa NNE 6.2mph /  10km/h 16.1mph /  25.9km/h 20% 0in /  0.0mm
16:24 102.7 °F /  39.3 °C 54 °F /  12.2 °C 29.7in /  1006.2hPa ONO 6.2mph /  10km/h 11.5mph /  18.5km/h 20% 0in /  0.0mm
16:29 102.6 °F /  39.2 °C 55.2 °F /  12.9 °C 29.7in /  1006.2hPa NO 8.7mph /  14km/h 16.3mph /  26.2km/h 21% 0in /  0.0mm
16:34 102.7 °F /  39.3 °C 55.2 °F /  12.9 °C 29.7in /  1006.1hPa NO 8.7mph /  14km/h 10.4mph /  16.7km/h 21% 0in /  0.0mm
16:39 102.9 °F /  39.4 °C 55.6 °F /  13.1 °C 29.7in /  1006.1hPa NO 6.9mph /  11.1km/h 11.5mph /  18.5km/h 21% 0in /  0.0mm
16:44 102.9 °F /  39.4 °C 55.6 °F /  13.1 °C 29.7in /  1006.1hPa ONO 6.9mph /  11.1km/h 12.7mph /  20.4km/h 21% 0in /  0.0mm
16:49 103.3 °F /  39.6 °C 54.3 °F /  12.4 °C 29.7in /  1006.1hPa Oeste 7.6mph /  12.2km/h 9.2mph /  14.8km/h 20% 0in /  0.0mm
16:54 102.6 °F /  39.2 °C 56.5 °F /  13.6 °C 29.7in /  1006.1hPa Oeste 7.6mph /  12.2km/h 8.1mph /  13km/h 22% 0in /  0.0mm
16:59 101.5 °F /  38.6 °C 60.3 °F /  15.7 °C 29.7in /  1006.1hPa SE 6.4mph /  10.3km/h 16.1mph /  25.9km/h 26% 0in /  0.0mm
17:04 100.6 °F /  38.1 °C 60.4 °F /  15.8 °C 29.7in /  1006.1hPa ESE 6.4mph /  10.3km/h 13.5mph /  21.7km/h 27% 0in /  0.0mm
17:09 99.7 °F /  37.6 °C 60.8 °F /  16 °C 29.7in /  1006.1hPa ESE 9.2mph /  14.8km/h 12.7mph /  20.4km/h 28% 0in /  0.0mm
17:14 99.1 °F /  37.3 °C 60.3 °F /  15.7 °C 29.7in /  1006.1hPa SE 9.2mph /  14.8km/h 11.5mph /  18.5km/h 28% 0in /  0.0mm
17:19 99.3 °F /  37.4 °C 60.4 °F /  15.8 °C 29.7in /  1006.2hPa SO 6.4mph /  10.3km/h 9.2mph /  14.8km/h 28% 0in /  0.0mm
17:24 99.1 °F /  37.3 °C 60.3 °F /  15.7 °C 29.7in /  1006.2hPa ESE 6.4mph /  10.3km/h 16.1mph /  25.9km/h 28% 0in /  0.0mm
17:29 99 °F /  37.2 °C 59.2 °F /  15.1 °C 29.7in /  1006.2hPa Sur 7.6mph /  12.2km/h 13.8mph /  22.2km/h 27% 0in /  0.0mm
17:34 98.8 °F /  37.1 °C 59 °F /  15 °C 29.7in /  1006.2hPa Sur 7.6mph /  12.2km/h 17.5mph /  28.2km/h 27% 0in /  0.0mm
17:39 98.4 °F /  36.9 °C 57.6 °F /  14.2 °C 29.7in /  1006.2hPa SSE 10.2mph /  16.4km/h 15.2mph /  24.5km/h 26% 0in /  0.0mm
17:44 98.4 °F /  36.9 °C 57.6 °F /  14.2 °C 29.7in /  1006.2hPa SSE 10.2mph /  16.4km/h 16.1mph /  25.9km/h 26% 0in /  0.0mm
17:49 98.8 °F /  37.1 °C 59 °F /  15 °C 29.7in /  1006.2hPa SSE 10mph /  16.1km/h 16.1mph /  25.9km/h 27% 0in /  0.0mm
17:54 99.1 °F /  37.3 °C 59.4 °F /  15.2 °C 29.7in /  1006.2hPa SSO 10mph /  16.1km/h 18.4mph /  29.6km/h 27% 0in /  0.0mm
17:59 99.1 °F /  37.3 °C 59.4 °F /  15.2 °C 29.7in /  1006.2hPa SSE 9.2mph /  14.8km/h 11.5mph /  18.5km/h 27% 0in /  0.0mm
18:04 99.3 °F /  37.4 °C 59.4 °F /  15.2 °C 29.7in /  1006.2hPa SSE 9.2mph /  14.8km/h 15mph /  24.1km/h 27% 0in /  0.0mm
18:09 99.3 °F /  37.4 °C 59.4 °F /  15.2 °C 29.7in /  1006.2hPa SSE 10.2mph /  16.4km/h 12.7mph /  20.4km/h 27% 0in /  0.0mm
18:14 99.3 °F /  37.4 °C 58.5 °F /  14.7 °C 29.7in /  1006.2hPa Sur 10.2mph /  16.4km/h 20.7mph /  33.3km/h 26% 0in /  0.0mm
18:19 98.8 °F /  37.1 °C 59 °F /  15 °C 29.7in /  1006.2hPa ESE 12.3mph /  19.8km/h 16.1mph /  25.9km/h 27% 0in /  0.0mm
18:24 99 °F /  37.2 °C 59.2 °F /  15.1 °C 29.7in /  1006.2hPa ESE 12.3mph /  19.8km/h 17.3mph /  27.8km/h 27% 0in /  0.0mm
18:29 99.1 °F /  37.3 °C 58.3 °F /  14.6 °C 29.7in /  1006.2hPa SSE 11.2mph /  18km/h 13.8mph /  22.2km/h 26% 0in /  0.0mm
18:34 99.3 °F /  37.4 °C 58.5 °F /  14.7 °C 29.7in /  1006.3hPa SSE 11.2mph /  18km/h 13.8mph /  22.2km/h 26% 0in /  0.0mm
18:39 99.5 °F /  37.5 °C 58.5 °F /  14.7 °C 29.7in /  1006.3hPa SE 8.1mph /  13km/h 12.7mph /  20.4km/h 26% 0in /  0.0mm
18:44 99.3 °F /  37.4 °C 58.5 °F /  14.7 °C 29.7in /  1006.3hPa SO 8.1mph /  13km/h 11.5mph /  18.5km/h 26% 0in /  0.0mm
18:49 99.5 °F /  37.5 °C 58.5 °F /  14.7 °C 29.7in /  1006.3hPa SSE 8.5mph /  13.7km/h 17.8mph /  28.6km/h 26% 0in /  0.0mm
18:54 99 °F /  37.2 °C 58.1 °F /  14.5 °C 29.7in /  1006.3hPa SSE 8.5mph /  13.7km/h 16.1mph /  25.9km/h 26% 0in /  0.0mm
18:59 98.4 °F /  36.9 °C 57.6 °F /  14.2 °C 29.7in /  1006.3hPa SE 12.3mph /  19.8km/h 17.3mph /  27.8km/h 26% 0in /  0.0mm
19:04 98.2 °F /  36.8 °C 57.6 °F /  14.2 °C 29.7in /  1006.4hPa Sur 12.3mph /  19.8km/h 17.5mph /  28.2km/h 26% 0in /  0.0mm
19:09 98.2 °F /  36.8 °C 57.6 °F /  14.2 °C 29.7in /  1006.4hPa SSE 11.8mph /  19km/h 15mph /  24.1km/h 26% 0in /  0.0mm
19:14 98.2 °F /  36.8 °C 57.6 °F /  14.2 °C 29.7in /  1006.4hPa SE 11.8mph /  19km/h 13.8mph /  22.2km/h 26% 0in /  0.0mm
19:19 98.1 °F /  36.7 °C 57.4 °F /  14.1 °C 29.7in /  1006.4hPa Sur 8.7mph /  14km/h 13.7mph /  22km/h 26% 0in /  0.0mm
19:24 97.9 °F /  36.6 °C 57.2 °F /  14 °C 29.7in /  1006.4hPa Sur 8.7mph /  14km/h 16.1mph /  25.9km/h 26% 0in /  0.0mm
19:29 97.9 °F /  36.6 °C 57.2 °F /  14 °C 29.7in /  1006.4hPa SSE 9.2mph /  14.8km/h 15.6mph /  25.1km/h 26% 0in /  0.0mm
19:34 97.9 °F /  36.6 °C 57.2 °F /  14 °C 29.7in /  1006.6hPa ESE 9.2mph /  14.8km/h 8.1mph /  13km/h 26% 0in /  0.0mm
19:39 97.9 °F /  36.6 °C 63 °F /  17.2 °C 29.7in /  1006.6hPa NNE 6.4mph /  10.3km/h 8.1mph /  13km/h 32% 0in /  0.0mm
19:44 95.5 °F /  35.3 °C 67.5 °F /  19.7 °C 29.7in /  1006.6hPa NE 6.4mph /  10.3km/h 15mph /  24.1km/h 40% 0in /  0.0mm
19:49 91.8 °F /  33.2 °C 68 °F /  20 °C 29.7in /  1006.8hPa NNE 8.5mph /  13.7km/h 22.5mph /  36.2km/h 46% 0in /  0.0mm
19:54 89.2 °F /  31.8 °C 68.7 °F /  20.4 °C 29.7in /  1006.8hPa ENE 8.5mph /  13.7km/h 17.3mph /  27.8km/h 51% 0in /  0.0mm
19:59 88.3 °F /  31.3 °C 68.5 °F /  20.3 °C 29.7in /  1006.8hPa NNE 13mph /  20.9km/h 13mph /  20.9km/h 52% 0in /  0.0mm
20:04 88 °F /  31.1 °C 69.3 °F /  20.7 °C 29.7in /  1007.1hPa NNO 13mph /  20.9km/h 17.3mph /  27.8km/h 54% 0in /  0.0mm
20:09 87.3 °F /  30.7 °C 69.6 °F /  20.9 °C 29.7in /  1007.1hPa NE 11.4mph /  18.3km/h 19.7mph /  31.7km/h 56% 0in /  0.0mm
20:14 86.5 °F /  30.3 °C 70.5 °F /  21.4 °C 29.7in /  1007.1hPa North 11.4mph /  18.3km/h 19.6mph /  31.5km/h 59% 0in /  0.0mm
20:19 85.5 °F /  29.7 °C 70.5 °F /  21.4 °C 29.8in /  1007.5hPa NE 13.5mph /  21.7km/h 18.4mph /  29.6km/h 61% 0in /  0.0mm
20:24 84.6 °F /  29.2 °C 70.5 °F /  21.4 °C 29.8in /  1007.5hPa NNE 13.5mph /  21.7km/h 17.3mph /  27.8km/h 63% 0in /  0.0mm
20:29 84.4 °F /  29.1 °C 70.9 °F /  21.6 °C 29.8in /  1007.5hPa NE 13.5mph /  21.7km/h 18.4mph /  29.6km/h 64% 0in /  0.0mm
20:34 84 °F /  28.9 °C 71.1 °F /  21.7 °C 29.8in /  1007.8hPa NE 13.5mph /  21.7km/h 19.6mph /  31.5km/h 65% 0in /  0.0mm
20:39 83.8 °F /  28.8 °C 71.2 °F /  21.8 °C 29.8in /  1007.8hPa NNE 13.5mph /  21.7km/h 18.4mph /  29.6km/h 66% 0in /  0.0mm
20:44 83.7 °F /  28.7 °C 71.1 °F /  21.7 °C 29.8in /  1007.8hPa NE 13.5mph /  21.7km/h 20.7mph /  33.3km/h 66% 0in /  0.0mm
20:49 83.5 °F /  28.6 °C 71.4 °F /  21.9 °C 29.8in /  1008.0hPa ENE 12.5mph /  20.1km/h 18.4mph /  29.6km/h 67% 0in /  0.0mm
20:54 82.9 °F /  28.3 °C 71.2 °F /  21.8 °C 29.8in /  1008.0hPa NE 12.5mph /  20.1km/h 20.7mph /  33.3km/h 68% 0in /  0.0mm
20:59 82.8 °F /  28.2 °C 71.1 °F /  21.7 °C 29.8in /  1008.0hPa NE 13.5mph /  21.7km/h 16.1mph /  25.9km/h 68% 0in /  0.0mm
21:04 82.6 °F /  28.1 °C 70.9 °F /  21.6 °C 29.8in /  1008.2hPa NE 13.5mph /  21.7km/h 23mph /  37km/h 68% 0in /  0.0mm
21:09 82.4 °F /  28 °C 71.2 °F /  21.8 °C 29.8in /  1008.2hPa ENE 14mph /  22.5km/h 17.3mph /  27.8km/h 69% 0in /  0.0mm
21:14 82 °F /  27.8 °C 70.9 °F /  21.6 °C 29.8in /  1008.2hPa ENE 14mph /  22.5km/h 20.7mph /  33.3km/h 69% 0in /  0.0mm
21:19 81.9 °F /  27.7 °C 71.1 °F /  21.7 °C 29.8in /  1008.4hPa ENE 13mph /  20.9km/h 23.7mph /  38.1km/h 70% 0in /  0.0mm
21:24 81.3 °F /  27.4 °C 71.1 °F /  21.7 °C 29.8in /  1008.4hPa NE 13mph /  20.9km/h 22.5mph /  36.2km/h 71% 0in /  0.0mm
21:29 81.1 °F /  27.3 °C 71.2 °F /  21.8 °C 29.8in /  1008.4hPa NNE 14.5mph /  23.3km/h 20.7mph /  33.3km/h 72% 0in /  0.0mm
21:34 81 °F /  27.2 °C 71.4 °F /  21.9 °C 29.8in /  1008.6hPa NE 14.5mph /  23.3km/h 23mph /  37km/h 73% 0in /  0.0mm
21:39 80.6 °F /  27 °C 71.4 °F /  21.9 °C 29.8in /  1008.6hPa North 14mph /  22.5km/h 17.3mph /  27.8km/h 74% 0in /  0.0mm
21:44 80.4 °F /  26.9 °C 71.4 °F /  21.9 °C 29.8in /  1008.6hPa ENE 14mph /  22.5km/h 25.3mph /  40.7km/h 74% 0in /  0.0mm
21:49 80.2 °F /  26.8 °C 71.6 °F /  22 °C 29.8in /  1008.9hPa NE 14mph /  22.5km/h 23mph /  37km/h 75% 0in /  0.0mm
21:54 80.1 °F /  26.7 °C 71.8 °F /  22.1 °C 29.8in /  1008.9hPa NNE 14mph /  22.5km/h 17.5mph /  28.2km/h 76% 0in /  0.0mm
21:59 79.9 °F /  26.6 °C 71.6 °F /  22 °C 29.8in /  1008.9hPa NE 13.7mph /  22km/h 20.7mph /  33.3km/h 76% 0in /  0.0mm
22:04 79.7 °F /  26.5 °C 71.8 °F /  22.1 °C 29.8in /  1009.3hPa NE 13.7mph /  22km/h 19.7mph /  31.7km/h 77% 0in /  0.0mm
22:09 79.5 °F /  26.4 °C 72.1 °F /  22.3 °C 29.8in /  1009.3hPa NNE 14mph /  22.5km/h 15mph /  24.1km/h 78% 0in /  0.0mm
22:14 79.5 °F /  26.4 °C 72.1 °F /  22.3 °C 29.8in /  1009.3hPa NNE 14mph /  22.5km/h 17.3mph /  27.8km/h 78% 0in /  0.0mm
22:19 79.3 °F /  26.3 °C 72 °F /  22.2 °C 29.8in /  1009.7hPa NE 12.5mph /  20.1km/h 18.4mph /  29.6km/h 78% 0in /  0.0mm
22:24 79.2 °F /  26.2 °C 72.1 °F /  22.3 °C 29.8in /  1009.7hPa ENE 12.5mph /  20.1km/h 20.7mph /  33.3km/h 79% 0in /  0.0mm
22:29 79.2 °F /  26.2 °C 72.1 °F /  22.3 °C 29.8in /  1009.7hPa ENE 13.5mph /  21.7km/h 19.2mph /  30.9km/h 79% 0in /  0.0mm
22:34 79.2 °F /  26.2 °C 72.5 °F /  22.5 °C 29.8in /  1010.0hPa ENE 13.5mph /  21.7km/h 18.4mph /  29.6km/h 80% 0in /  0.0mm
22:39 79 °F /  26.1 °C 72.3 °F /  22.4 °C 29.8in /  1010.0hPa North 12.3mph /  19.8km/h 17.3mph /  27.8km/h 80% 0in /  0.0mm
22:44 79 °F /  26.1 °C 72.3 °F /  22.4 °C 29.8in /  1010.0hPa ENE 12.3mph /  19.8km/h 16.8mph /  27km/h 80% 0in /  0.0mm
22:49 79 °F /  26.1 °C 72.7 °F /  22.6 °C 29.8in /  1010.2hPa NE 11.4mph /  18.3km/h 18.4mph /  29.6km/h 81% 0in /  0.0mm
22:54 79 °F /  26.1 °C 72.7 °F /  22.6 °C 29.8in /  1010.2hPa NNE 11.4mph /  18.3km/h 16.1mph /  25.9km/h 81% 0in /  0.0mm
22:59 79 °F /  26.1 °C 72.7 °F /  22.6 °C 29.8in /  1010.2hPa NNE 10.2mph /  16.4km/h 13.7mph /  22km/h 81% 0in /  0.0mm
23:04 78.8 °F /  26 °C 72.5 °F /  22.5 °C 29.8in /  1010.5hPa NE 10.2mph /  16.4km/h 17.3mph /  27.8km/h 81% 0in /  0.0mm
23:09 78.6 °F /  25.9 °C 72.3 °F /  22.4 °C 29.8in /  1010.5hPa ENE 10.2mph /  16.4km/h 15mph /  24.1km/h 81% 0in /  0.0mm
23:14 78.6 °F /  25.9 °C 72.3 °F /  22.4 °C 29.8in /  1010.5hPa NE 10.2mph /  16.4km/h 12.7mph /  20.4km/h 81% 0in /  0.0mm
23:19 78.6 °F /  25.9 °C 72.3 °F /  22.4 °C 29.8in /  1010.7hPa NE 10mph /  16.1km/h 12.7mph /  20.4km/h 81% 0in /  0.0mm
23:24 78.6 °F /  25.9 °C 72.3 °F /  22.4 °C 29.8in /  1010.7hPa NNO 10mph /  16.1km/h 11.5mph /  18.5km/h 81% 0in /  0.0mm
23:29 78.6 °F /  25.9 °C 72.3 °F /  22.4 °C 29.8in /  1010.7hPa NE 9.2mph /  14.8km/h 15mph /  24.1km/h 81% 0in /  0.0mm
23:34 78.4 °F /  25.8 °C 72.1 °F /  22.3 °C 29.9in /  1010.8hPa NNE 9.2mph /  14.8km/h 12.7mph /  20.4km/h 81% 0in /  0.0mm
23:39 78.4 °F /  25.8 °C 72.1 °F /  22.3 °C 29.9in /  1010.8hPa NE 10.7mph /  17.2km/h 14.5mph /  23.3km/h 81% 0in /  0.0mm
23:44 78.4 °F /  25.8 °C 72.1 °F /  22.3 °C 29.9in /  1010.8hPa NE 10.7mph /  17.2km/h 11.5mph /  18.5km/h 81% 0in /  0.0mm
23:49 78.4 °F /  25.8 °C 72.1 °F /  22.3 °C 29.9in /  1011.0hPa ENE 8.7mph /  14km/h 12.7mph /  20.4km/h 81% 0in /  0.0mm
23:54 78.4 °F /  25.8 °C 72.1 °F /  22.3 °C 29.9in /  1011.0hPa NNE 8.7mph /  14km/h 9.2mph /  14.8km/h 81% 0in /  0.0mm
23:59 78.3 °F /  25.7 °C 72.3 °F /  22.4 °C 29.9in /  1011.0hPa Este 8.1mph /  13km/h 13.8mph /  22.2km/h 82% 0in /  0.0mm
Murcia-Puente Tocinos, España
Compliments of Weather Underground - 3.25 mb

La estación de MeteoMurcia.com, publica sus datos en los siguientes proyectos:

Weather Underground PWS IMURCIAP2 Meteoclimatic www.awekas.at

W3Counter
Web Analytics